Fouke, Arkansas
Current Conditions -  °F | °C
As of 11:53 AM on Saturday 25 Oct 2014 (Local Time) from KTXK Reporting Station
Clear Clear  
Wind Chill: 79°   Ceiling: Unl
Heat Index: 80°   Visibility: 10mi
Dew Point: 61°   Wind: 10mph
Humidity: 54%   Direction: 270°W
Pressure: 30.15"   Gusts: NA
Location:  33.26°N, 93.89°W
Report Text: KTXK 251653Z 27009KT 10SM CLR 26/16 A3015 RMK AO2 SLP206 T02610161
Loading
Personal Weather Stations






























Interactive Weather Map
Tropical Storm Tracking
New forecast layout! Learn more

10-Day Weather Forecast

Advertisements
Track Severe Weather on mobile